sensor_id;sensor_type;location;lat;lon;timestamp;P1;durP1;ratioP1;P2;durP2;ratioP2
3708;SDS011;1870;53.996;10.784;2023-05-09T00:01:54;7.40;;;4.10;;
3708;SDS011;1870;53.996;10.784;2023-05-09T00:04:20;4.37;;;3.03;;
3708;SDS011;1870;53.996;10.784;2023-05-09T00:06:46;5.63;;;4.50;;
3708;SDS011;1870;53.996;10.784;2023-05-09T00:09:11;3.83;;;3.03;;
3708;SDS011;1870;53.996;10.784;2023-05-09T00:11:37;4.27;;;3.47;;
3708;SDS011;1870;53.996;10.784;2023-05-09T00:14:03;4.30;;;3.90;;
3708;SDS011;1870;53.996;10.784;2023-05-09T00:16:29;5.20;;;3.50;;
3708;SDS011;1870;53.996;10.784;2023-05-09T00:18:59;5.47;;;3.93;;
3708;SDS011;1870;53.996;10.784;2023-05-09T00:21:25;4.37;;;3.83;;
3708;SDS011;1870;53.996;10.784;2023-05-09T00:23:52;4.27;;;3.63;;
3708;SDS011;1870;53.996;10.784;2023-05-09T00:26:17;7.60;;;4.00;;
3708;SDS011;1870;53.996;10.784;2023-05-09T00:28:43;4.30;;;3.50;;
3708;SDS011;1870;53.996;10.784;2023-05-09T00:31:09;4.47;;;4.07;;
3708;SDS011;1870;53.996;10.784;2023-05-09T00:33:34;8.00;;;3.40;;
3708;SDS011;1870;53.996;10.784;2023-05-09T00:36:01;6.53;;;4.33;;
3708;SDS011;1870;53.996;10.784;2023-05-09T00:38:26;6.80;;;4.50;;
3708;SDS011;1870;53.996;10.784;2023-05-09T00:40:52;6.13;;;3.87;;
3708;SDS011;1870;53.996;10.784;2023-05-09T00:43:18;9.67;;;4.50;;
3708;SDS011;1870;53.996;10.784;2023-05-09T00:45:43;4.20;;;3.50;;
3708;SDS011;1870;53.996;10.784;2023-05-09T00:48:09;5.33;;;3.80;;
3708;SDS011;1870;53.996;10.784;2023-05-09T00:50:35;6.90;;;4.67;;
3708;SDS011;1870;53.996;10.784;2023-05-09T00:53:02;5.40;;;4.30;;
3708;SDS011;1870;53.996;10.784;2023-05-09T00:55:29;4.60;;;3.93;;
3708;SDS011;1870;53.996;10.784;2023-05-09T00:57:55;5.13;;;3.37;;
3708;SDS011;1870;53.996;10.784;2023-05-09T01:00:20;4.77;;;4.20;;
3708;SDS011;1870;53.996;10.784;2023-05-09T01:02:47;4.63;;;3.60;;
3708;SDS011;1870;53.996;10.784;2023-05-09T01:05:18;5.07;;;4.20;;
3708;SDS011;1870;53.996;10.784;2023-05-09T01:08:00;6.53;;;4.33;;
3708;SDS011;1870;53.996;10.784;2023-05-09T01:10:36;4.20;;;3.20;;
3708;SDS011;1870;53.996;10.784;2023-05-09T01:13:14;5.03;;;3.80;;
3708;SDS011;1870;53.996;10.784;2023-05-09T01:15:55;6.07;;;4.37;;
3708;SDS011;1870;53.996;10.784;2023-05-09T01:18:46;4.70;;;4.20;;
3708;SDS011;1870;53.996;10.784;2023-05-09T01:21:25;5.43;;;3.90;;
3708;SDS011;1870;53.996;10.784;2023-05-09T01:29:36;5.00;;;4.33;;
3708;SDS011;1870;53.996;10.784;2023-05-09T01:32:13;9.50;;;5.30;;
3708;SDS011;1870;53.996;10.784;2023-05-09T01:34:44;7.33;;;4.97;;
3708;SDS011;1870;53.996;10.784;2023-05-09T01:37:15;5.13;;;4.53;;
3708;SDS011;1870;53.996;10.784;2023-05-09T01:39:44;4.70;;;4.30;;
3708;SDS011;1870;53.996;10.784;2023-05-09T01:42:13;5.67;;;4.37;;
3708;SDS011;1870;53.996;10.784;2023-05-09T01:44:41;6.83;;;4.13;;
3708;SDS011;1870;53.996;10.784;2023-05-09T01:47:08;8.20;;;4.40;;
3708;SDS011;1870;53.996;10.784;2023-05-09T01:49:35;4.90;;;4.00;;
3708;SDS011;1870;53.996;10.784;2023-05-09T01:52:12;6.10;;;4.17;;
3708;SDS011;1870;53.996;10.784;2023-05-09T01:54:42;8.10;;;4.90;;
3708;SDS011;1870;53.996;10.784;2023-05-09T01:57:10;8.03;;;4.57;;
3708;SDS011;1870;53.996;10.784;2023-05-09T01:59:40;6.10;;;4.60;;
3708;SDS011;1870;53.996;10.784;2023-05-09T02:02:08;5.43;;;4.47;;
3708;SDS011;1870;53.996;10.784;2023-05-09T02:04:34;6.87;;;5.13;;
3708;SDS011;1870;53.996;10.784;2023-05-09T02:07:01;5.60;;;4.93;;
3708;SDS011;1870;53.996;10.784;2023-05-09T02:09:28;5.57;;;4.40;;
3708;SDS011;1870;53.996;10.784;2023-05-09T02:11:53;6.70;;;4.80;;
3708;SDS011;1870;53.996;10.784;2023-05-09T02:14:19;4.87;;;4.47;;
3708;SDS011;1870;53.996;10.784;2023-05-09T02:16:45;6.03;;;5.47;;
3708;SDS011;1870;53.996;10.784;2023-05-09T02:19:14;6.47;;;4.80;;
3708;SDS011;1870;53.996;10.784;2023-05-09T02:21:42;5.87;;;4.70;;
3708;SDS011;1870;53.996;10.784;2023-05-09T02:24:08;8.53;;;5.57;;
3708;SDS011;1870;53.996;10.784;2023-05-09T02:26:34;5.37;;;4.40;;
3708;SDS011;1870;53.996;10.784;2023-05-09T02:29:01;6.20;;;5.27;;
3708;SDS011;1870;53.996;10.784;2023-05-09T02:31:29;9.00;;;6.47;;
3708;SDS011;1870;53.996;10.784;2023-05-09T02:33:57;9.23;;;4.90;;
3708;SDS011;1870;53.996;10.784;2023-05-09T02:36:23;9.77;;;5.20;;
3708;SDS011;1870;53.996;10.784;2023-05-09T02:38:49;7.00;;;4.83;;
3708;SDS011;1870;53.996;10.784;2023-05-09T02:41:15;9.17;;;5.23;;
3708;SDS011;1870;53.996;10.784;2023-05-09T02:43:41;5.60;;;4.97;;
3708;SDS011;1870;53.996;10.784;2023-05-09T02:46:07;6.23;;;5.63;;
3708;SDS011;1870;53.996;10.784;2023-05-09T02:48:34;7.27;;;6.00;;
3708;SDS011;1870;53.996;10.784;2023-05-09T02:51:00;5.53;;;5.03;;
3708;SDS011;1870;53.996;10.784;2023-05-09T02:53:25;7.63;;;5.73;;
3708;SDS011;1870;53.996;10.784;2023-05-09T02:55:51;6.57;;;5.83;;
3708;SDS011;1870;53.996;10.784;2023-05-09T02:58:18;6.00;;;5.40;;
3708;SDS011;1870;53.996;10.784;2023-05-09T03:00:44;5.73;;;5.13;;
3708;SDS011;1870;53.996;10.784;2023-05-09T03:03:10;8.33;;;5.60;;
3708;SDS011;1870;53.996;10.784;2023-05-09T03:05:35;7.77;;;5.87;;
3708;SDS011;1870;53.996;10.784;2023-05-09T03:08:01;7.43;;;5.80;;
3708;SDS011;1870;53.996;10.784;2023-05-09T03:10:27;6.67;;;6.00;;
3708;SDS011;1870;53.996;10.784;2023-05-09T03:12:52;5.93;;;5.10;;
3708;SDS011;1870;53.996;10.784;2023-05-09T03:15:19;7.00;;;5.23;;
3708;SDS011;1870;53.996;10.784;2023-05-09T03:17:45;7.87;;;5.90;;
3708;SDS011;1870;53.996;10.784;2023-05-09T03:20:11;8.17;;;5.30;;
3708;SDS011;1870;53.996;10.784;2023-05-09T03:22:37;6.80;;;5.60;;
3708;SDS011;1870;53.996;10.784;2023-05-09T03:25:03;6.57;;;5.53;;
3708;SDS011;1870;53.996;10.784;2023-05-09T03:30:52;7.33;;;5.47;;
3708;SDS011;1870;53.996;10.784;2023-05-09T03:33:18;6.10;;;5.17;;
3708;SDS011;1870;53.996;10.784;2023-05-09T03:35:44;6.17;;;5.60;;
3708;SDS011;1870;53.996;10.784;2023-05-09T03:38:10;7.20;;;5.50;;
3708;SDS011;1870;53.996;10.784;2023-05-09T03:40:36;7.40;;;6.00;;
3708;SDS011;1870;53.996;10.784;2023-05-09T03:43:04;9.17;;;6.37;;
3708;SDS011;1870;53.996;10.784;2023-05-09T03:45:30;8.63;;;6.30;;
3708;SDS011;1870;53.996;10.784;2023-05-09T03:47:56;7.70;;;5.60;;
3708;SDS011;1870;53.996;10.784;2023-05-09T03:50:22;16.37;;;5.60;;
3708;SDS011;1870;53.996;10.784;2023-05-09T03:52:47;10.70;;;5.53;;
3708;SDS011;1870;53.996;10.784;2023-05-09T03:55:14;10.00;;;6.07;;
3708;SDS011;1870;53.996;10.784;2023-05-09T03:57:40;8.43;;;6.20;;
3708;SDS011;1870;53.996;10.784;2023-05-09T04:00:06;7.73;;;5.87;;
3708;SDS011;1870;53.996;10.784;2023-05-09T04:02:34;6.70;;;5.17;;
3708;SDS011;1870;53.996;10.784;2023-05-09T04:04:59;9.73;;;6.43;;
3708;SDS011;1870;53.996;10.784;2023-05-09T04:07:25;7.40;;;6.70;;
3708;SDS011;1870;53.996;10.784;2023-05-09T04:09:52;8.20;;;6.70;;
3708;SDS011;1870;53.996;10.784;2023-05-09T04:12:20;10.03;;;6.00;;
3708;SDS011;1870;53.996;10.784;2023-05-09T04:14:45;7.43;;;6.33;;
3708;SDS011;1870;53.996;10.784;2023-05-09T04:17:11;7.20;;;6.37;;
3708;SDS011;1870;53.996;10.784;2023-05-09T04:19:37;7.27;;;5.50;;
3708;SDS011;1870;53.996;10.784;2023-05-09T04:22:02;6.77;;;5.50;;
3708;SDS011;1870;53.996;10.784;2023-05-09T04:24:28;8.00;;;5.70;;
3708;SDS011;1870;53.996;10.784;2023-05-09T04:26:54;7.20;;;6.33;;
3708;SDS011;1870;53.996;10.784;2023-05-09T04:29:20;7.47;;;5.67;;
3708;SDS011;1870;53.996;10.784;2023-05-09T04:31:45;7.67;;;5.93;;
3708;SDS011;1870;53.996;10.784;2023-05-09T04:34:11;6.00;;;5.20;;
3708;SDS011;1870;53.996;10.784;2023-05-09T04:36:37;9.07;;;6.80;;
3708;SDS011;1870;53.996;10.784;2023-05-09T04:39:02;8.83;;;5.50;;
3708;SDS011;1870;53.996;10.784;2023-05-09T04:41:29;9.00;;;7.17;;
3708;SDS011;1870;53.996;10.784;2023-05-09T04:43:55;8.90;;;6.10;;
3708;SDS011;1870;53.996;10.784;2023-05-09T04:46:20;9.60;;;6.30;;
3708;SDS011;1870;53.996;10.784;2023-05-09T04:48:46;7.97;;;5.90;;
3708;SDS011;1870;53.996;10.784;2023-05-09T04:51:12;13.90;;;12.67;;
3708;SDS011;1870;53.996;10.784;2023-05-09T04:53:37;6.70;;;5.97;;
3708;SDS011;1870;53.996;10.784;2023-05-09T04:56:03;9.60;;;5.70;;
3708;SDS011;1870;53.996;10.784;2023-05-09T04:58:29;7.90;;;5.40;;
3708;SDS011;1870;53.996;10.784;2023-05-09T05:00:55;7.10;;;5.40;;
3708;SDS011;1870;53.996;10.784;2023-05-09T05:03:20;11.60;;;6.70;;
3708;SDS011;1870;53.996;10.784;2023-05-09T05:05:46;8.30;;;6.00;;
3708;SDS011;1870;53.996;10.784;2023-05-09T05:08:11;8.43;;;6.27;;
3708;SDS011;1870;53.996;10.784;2023-05-09T05:10:37;7.70;;;6.87;;
3708;SDS011;1870;53.996;10.784;2023-05-09T05:13:03;9.67;;;6.00;;
3708;SDS011;1870;53.996;10.784;2023-05-09T05:15:28;13.23;;;8.20;;
3708;SDS011;1870;53.996;10.784;2023-05-09T05:17:57;9.93;;;7.43;;
3708;SDS011;1870;53.996;10.784;2023-05-09T05:20:23;9.33;;;6.50;;
3708;SDS011;1870;53.996;10.784;2023-05-09T05:22:48;11.50;;;6.60;;
3708;SDS011;1870;53.996;10.784;2023-05-09T05:25:14;8.17;;;5.93;;
3708;SDS011;1870;53.996;10.784;2023-05-09T05:27:41;14.30;;;6.60;;
3708;SDS011;1870;53.996;10.784;2023-05-09T05:30:07;7.90;;;6.13;;
3708;SDS011;1870;53.996;10.784;2023-05-09T05:32:33;8.03;;;6.07;;
3708;SDS011;1870;53.996;10.784;2023-05-09T05:34:59;7.77;;;6.33;;
3708;SDS011;1870;53.996;10.784;2023-05-09T05:37:26;8.60;;;6.67;;
3708;SDS011;1870;53.996;10.784;2023-05-09T05:39:52;8.53;;;6.40;;
3708;SDS011;1870;53.996;10.784;2023-05-09T05:42:18;7.30;;;6.37;;
3708;SDS011;1870;53.996;10.784;2023-05-09T05:44:44;8.70;;;6.00;;
3708;SDS011;1870;53.996;10.784;2023-05-09T05:47:09;7.63;;;6.60;;
3708;SDS011;1870;53.996;10.784;2023-05-09T05:49:35;11.30;;;6.67;;
3708;SDS011;1870;53.996;10.784;2023-05-09T05:52:03;9.50;;;6.50;;
3708;SDS011;1870;53.996;10.784;2023-05-09T05:54:29;10.83;;;6.47;;
3708;SDS011;1870;53.996;10.784;2023-05-09T05:56:54;10.07;;;5.97;;
3708;SDS011;1870;53.996;10.784;2023-05-09T05:59:20;8.07;;;6.90;;
3708;SDS011;1870;53.996;10.784;2023-05-09T06:01:45;8.90;;;6.00;;
3708;SDS011;1870;53.996;10.784;2023-05-09T06:04:11;7.07;;;6.37;;
3708;SDS011;1870;53.996;10.784;2023-05-09T06:06:37;6.87;;;5.37;;
3708;SDS011;1870;53.996;10.784;2023-05-09T06:09:02;7.70;;;6.47;;
3708;SDS011;1870;53.996;10.784;2023-05-09T06:11:28;6.80;;;5.53;;
3708;SDS011;1870;53.996;10.784;2023-05-09T06:13:54;6.80;;;6.13;;
3708;SDS011;1870;53.996;10.784;2023-05-09T06:16:28;9.70;;;7.77;;
3708;SDS011;1870;53.996;10.784;2023-05-09T06:18:54;7.90;;;6.17;;
3708;SDS011;1870;53.996;10.784;2023-05-09T06:21:20;7.23;;;6.10;;
3708;SDS011;1870;53.996;10.784;2023-05-09T06:23:45;10.40;;;6.80;;
3708;SDS011;1870;53.996;10.784;2023-05-09T06:26:11;11.10;;;6.87;;
3708;SDS011;1870;53.996;10.784;2023-05-09T06:28:38;7.43;;;6.13;;
3708;SDS011;1870;53.996;10.784;2023-05-09T06:31:04;6.83;;;6.13;;
3708;SDS011;1870;53.996;10.784;2023-05-09T06:33:29;7.50;;;6.70;;
3708;SDS011;1870;53.996;10.784;2023-05-09T06:35:55;9.30;;;6.30;;
3708;SDS011;1870;53.996;10.784;2023-05-09T06:38:22;7.67;;;6.60;;
3708;SDS011;1870;53.996;10.784;2023-05-09T06:40:48;10.73;;;7.47;;
3708;SDS011;1870;53.996;10.784;2023-05-09T06:43:14;7.80;;;6.73;;
3708;SDS011;1870;53.996;10.784;2023-05-09T06:45:40;8.83;;;5.97;;
3708;SDS011;1870;53.996;10.784;2023-05-09T06:48:05;10.13;;;7.30;;
3708;SDS011;1870;53.996;10.784;2023-05-09T06:50:31;7.17;;;6.37;;
3708;SDS011;1870;53.996;10.784;2023-05-09T06:52:57;7.97;;;6.10;;
3708;SDS011;1870;53.996;10.784;2023-05-09T06:55:22;6.90;;;6.27;;
3708;SDS011;1870;53.996;10.784;2023-05-09T06:57:48;8.10;;;6.90;;
3708;SDS011;1870;53.996;10.784;2023-05-09T07:00:14;7.43;;;6.43;;
3708;SDS011;1870;53.996;10.784;2023-05-09T07:02:40;7.27;;;6.27;;
3708;SDS011;1870;53.996;10.784;2023-05-09T07:05:07;7.93;;;6.03;;
3708;SDS011;1870;53.996;10.784;2023-05-09T07:07:33;7.27;;;6.53;;
3708;SDS011;1870;53.996;10.784;2023-05-09T07:10:00;7.47;;;5.43;;
3708;SDS011;1870;53.996;10.784;2023-05-09T07:12:29;10.27;;;6.63;;
3708;SDS011;1870;53.996;10.784;2023-05-09T07:14:55;6.57;;;5.50;;
3708;SDS011;1870;53.996;10.784;2023-05-09T07:17:21;8.73;;;5.33;;
3708;SDS011;1870;53.996;10.784;2023-05-09T07:19:48;6.00;;;5.40;;
3708;SDS011;1870;53.996;10.784;2023-05-09T07:22:14;6.70;;;6.00;;
3708;SDS011;1870;53.996;10.784;2023-05-09T07:24:39;7.67;;;5.50;;
3708;SDS011;1870;53.996;10.784;2023-05-09T07:27:05;8.13;;;7.33;;
3708;SDS011;1870;53.996;10.784;2023-05-09T07:29:31;5.33;;;4.87;;
3708;SDS011;1870;53.996;10.784;2023-05-09T07:31:56;9.50;;;5.77;;
3708;SDS011;1870;53.996;10.784;2023-05-09T07:34:22;9.00;;;5.80;;
3708;SDS011;1870;53.996;10.784;2023-05-09T07:36:49;13.07;;;6.30;;
3708;SDS011;1870;53.996;10.784;2023-05-09T07:39:18;6.13;;;5.53;;
3708;SDS011;1870;53.996;10.784;2023-05-09T07:41:46;5.70;;;5.17;;
3708;SDS011;1870;53.996;10.784;2023-05-09T07:44:15;7.83;;;5.27;;
3708;SDS011;1870;53.996;10.784;2023-05-09T07:46:41;8.90;;;5.97;;
3708;SDS011;1870;53.996;10.784;2023-05-09T07:49:09;5.90;;;5.43;;
3708;SDS011;1870;53.996;10.784;2023-05-09T07:51:37;6.33;;;5.73;;
3708;SDS011;1870;53.996;10.784;2023-05-09T07:54:03;6.33;;;5.70;;
3708;SDS011;1870;53.996;10.784;2023-05-09T07:56:29;11.13;;;7.13;;
3708;SDS011;1870;53.996;10.784;2023-05-09T07:58:54;10.00;;;6.47;;
3708;SDS011;1870;53.996;10.784;2023-05-09T08:01:20;6.53;;;5.93;;
3708;SDS011;1870;53.996;10.784;2023-05-09T08:03:46;6.47;;;5.97;;
3708;SDS011;1870;53.996;10.784;2023-05-09T08:06:14;6.57;;;5.97;;
3708;SDS011;1870;53.996;10.784;2023-05-09T08:08:40;7.37;;;6.73;;
3708;SDS011;1870;53.996;10.784;2023-05-09T08:11:05;7.43;;;6.53;;
3708;SDS011;1870;53.996;10.784;2023-05-09T08:13:31;9.13;;;6.23;;
3708;SDS011;1870;53.996;10.784;2023-05-09T08:15:57;6.43;;;5.87;;
3708;SDS011;1870;53.996;10.784;2023-05-09T08:18:22;9.00;;;6.63;;
3708;SDS011;1870;53.996;10.784;2023-05-09T08:20:48;6.60;;;6.10;;
3708;SDS011;1870;53.996;10.784;2023-05-09T08:23:14;7.40;;;6.57;;
3708;SDS011;1870;53.996;10.784;2023-05-09T08:25:39;6.20;;;5.60;;
3708;SDS011;1870;53.996;10.784;2023-05-09T08:28:05;6.83;;;5.43;;
3708;SDS011;1870;53.996;10.784;2023-05-09T08:30:31;9.10;;;5.57;;
3708;SDS011;1870;53.996;10.784;2023-05-09T08:32:56;6.50;;;5.83;;
3708;SDS011;1870;53.996;10.784;2023-05-09T08:35:23;6.33;;;5.63;;
3708;SDS011;1870;53.996;10.784;2023-05-09T08:37:51;6.23;;;5.40;;
3708;SDS011;1870;53.996;10.784;2023-05-09T08:40:17;6.60;;;5.43;;
3708;SDS011;1870;53.996;10.784;2023-05-09T08:42:43;6.50;;;5.90;;
3708;SDS011;1870;53.996;10.784;2023-05-09T08:45:10;6.30;;;5.80;;
3708;SDS011;1870;53.996;10.784;2023-05-09T08:47:40;6.87;;;6.30;;
3708;SDS011;1870;53.996;10.784;2023-05-09T08:50:06;7.83;;;7.13;;
3708;SDS011;1870;53.996;10.784;2023-05-09T08:52:33;10.33;;;6.27;;
3708;SDS011;1870;53.996;10.784;2023-05-09T08:54:59;8.47;;;5.57;;
3708;SDS011;1870;53.996;10.784;2023-05-09T08:57:32;5.67;;;5.10;;
3708;SDS011;1870;53.996;10.784;2023-05-09T09:00:00;10.13;;;5.60;;
3708;SDS011;1870;53.996;10.784;2023-05-09T09:02:30;6.67;;;5.10;;
3708;SDS011;1870;53.996;10.784;2023-05-09T09:04:56;5.70;;;5.20;;
3708;SDS011;1870;53.996;10.784;2023-05-09T09:07:22;5.60;;;5.20;;
3708;SDS011;1870;53.996;10.784;2023-05-09T09:09:49;7.10;;;6.40;;
3708;SDS011;1870;53.996;10.784;2023-05-09T09:12:20;5.77;;;5.27;;
3708;SDS011;1870;53.996;10.784;2023-05-09T09:14:48;9.40;;;5.73;;
3708;SDS011;1870;53.996;10.784;2023-05-09T09:17:19;6.60;;;6.00;;
3708;SDS011;1870;53.996;10.784;2023-05-09T09:19:49;12.40;;;6.57;;
3708;SDS011;1870;53.996;10.784;2023-05-09T09:22:19;6.30;;;5.70;;
3708;SDS011;1870;53.996;10.784;2023-05-09T09:24:46;5.57;;;5.10;;
3708;SDS011;1870;53.996;10.784;2023-05-09T09:27:12;6.43;;;5.03;;
3708;SDS011;1870;53.996;10.784;2023-05-09T09:29:37;5.63;;;5.10;;
3708;SDS011;1870;53.996;10.784;2023-05-09T09:32:04;5.90;;;5.40;;
3708;SDS011;1870;53.996;10.784;2023-05-09T09:34:30;7.13;;;5.10;;
3708;SDS011;1870;53.996;10.784;2023-05-09T09:36:57;12.47;;;5.33;;
3708;SDS011;1870;53.996;10.784;2023-05-09T09:39:23;8.53;;;5.40;;
3708;SDS011;1870;53.996;10.784;2023-05-09T09:41:48;8.13;;;5.23;;
3708;SDS011;1870;53.996;10.784;2023-05-09T09:44:18;6.40;;;5.43;;
3708;SDS011;1870;53.996;10.784;2023-05-09T09:46:49;6.03;;;5.00;;
3708;SDS011;1870;53.996;10.784;2023-05-09T09:49:19;5.53;;;5.03;;
3708;SDS011;1870;53.996;10.784;2023-05-09T09:51:58;5.70;;;5.20;;
3708;SDS011;1870;53.996;10.784;2023-05-09T09:54:27;9.20;;;5.00;;
3708;SDS011;1870;53.996;10.784;2023-05-09T09:56:55;6.27;;;5.67;;
3708;SDS011;1870;53.996;10.784;2023-05-09T09:59:22;7.20;;;6.03;;
3708;SDS011;1870;53.996;10.784;2023-05-09T10:04:31;5.93;;;5.20;;
3708;SDS011;1870;53.996;10.784;2023-05-09T10:07:02;5.77;;;5.00;;
3708;SDS011;1870;53.996;10.784;2023-05-09T10:09:34;5.80;;;5.20;;
3708;SDS011;1870;53.996;10.784;2023-05-09T10:12:05;6.53;;;4.70;;
3708;SDS011;1870;53.996;10.784;2023-05-09T10:14:35;7.67;;;5.60;;
3708;SDS011;1870;53.996;10.784;2023-05-09T10:17:03;9.67;;;5.20;;
3708;SDS011;1870;53.996;10.784;2023-05-09T10:19:29;8.17;;;7.17;;
3708;SDS011;1870;53.996;10.784;2023-05-09T10:21:57;8.20;;;5.73;;
3708;SDS011;1870;53.996;10.784;2023-05-09T10:24:26;5.50;;;4.97;;
3708;SDS011;1870;53.996;10.784;2023-05-09T10:26:55;8.13;;;5.67;;
3708;SDS011;1870;53.996;10.784;2023-05-09T10:29:34;5.37;;;4.97;;
3708;SDS011;1870;53.996;10.784;2023-05-09T10:32:04;5.43;;;4.93;;
3708;SDS011;1870;53.996;10.784;2023-05-09T10:34:36;8.70;;;7.53;;
3708;SDS011;1870;53.996;10.784;2023-05-09T10:37:07;5.93;;;5.43;;
3708;SDS011;1870;53.996;10.784;2023-05-09T10:39:32;5.90;;;5.30;;
3708;SDS011;1870;53.996;10.784;2023-05-09T10:41:59;5.53;;;5.03;;
3708;SDS011;1870;53.996;10.784;2023-05-09T10:44:26;10.97;;;4.60;;
3708;SDS011;1870;53.996;10.784;2023-05-09T10:46:52;6.10;;;5.47;;
3708;SDS011;1870;53.996;10.784;2023-05-09T10:49:18;6.13;;;5.53;;
3708;SDS011;1870;53.996;10.784;2023-05-09T10:51:44;6.83;;;5.80;;
3708;SDS011;1870;53.996;10.784;2023-05-09T10:54:13;7.77;;;5.70;;
3708;SDS011;1870;53.996;10.784;2023-05-09T10:56:50;7.13;;;5.70;;
3708;SDS011;1870;53.996;10.784;2023-05-09T10:59:32;7.80;;;6.30;;
3708;SDS011;1870;53.996;10.784;2023-05-09T11:01:59;9.07;;;6.10;;
3708;SDS011;1870;53.996;10.784;2023-05-09T11:04:26;5.60;;;5.10;;
3708;SDS011;1870;53.996;10.784;2023-05-09T11:06:52;5.43;;;4.93;;
3708;SDS011;1870;53.996;10.784;2023-05-09T11:14:41;4.03;;;3.73;;
3708;SDS011;1870;53.996;10.784;2023-05-09T11:17:12;7.13;;;5.10;;
3708;SDS011;1870;53.996;10.784;2023-05-09T11:22:24;5.33;;;4.83;;
3708;SDS011;1870;53.996;10.784;2023-05-09T11:25:13;6.20;;;4.80;;
3708;SDS011;1870;53.996;10.784;2023-05-09T11:27:42;10.33;;;5.20;;
3708;SDS011;1870;53.996;10.784;2023-05-09T11:30:13;10.20;;;5.40;;
3708;SDS011;1870;53.996;10.784;2023-05-09T11:32:49;5.33;;;4.93;;
3708;SDS011;1870;53.996;10.784;2023-05-09T11:38:03;6.63;;;4.40;;
3708;SDS011;1870;53.996;10.784;2023-05-09T11:40:33;5.30;;;4.87;;
3708;SDS011;1870;53.996;10.784;2023-05-09T11:42:59;4.37;;;4.07;;
3708;SDS011;1870;53.996;10.784;2023-05-09T11:45:27;7.10;;;4.67;;
3708;SDS011;1870;53.996;10.784;2023-05-09T11:47:57;5.60;;;5.20;;
3708;SDS011;1870;53.996;10.784;2023-05-09T11:50:24;5.50;;;5.00;;
3708;SDS011;1870;53.996;10.784;2023-05-09T11:52:53;5.30;;;4.80;;
3708;SDS011;1870;53.996;10.784;2023-05-09T11:55:25;6.63;;;4.57;;
3708;SDS011;1870;53.996;10.784;2023-05-09T11:57:54;8.43;;;4.17;;
3708;SDS011;1870;53.996;10.784;2023-05-09T12:00:31;5.33;;;4.60;;
3708;SDS011;1870;53.996;10.784;2023-05-09T12:02:57;5.17;;;4.70;;
3708;SDS011;1870;53.996;10.784;2023-05-09T12:05:22;7.03;;;4.97;;
3708;SDS011;1870;53.996;10.784;2023-05-09T12:07:51;5.10;;;4.57;;
3708;SDS011;1870;53.996;10.784;2023-05-09T12:10:20;4.53;;;4.13;;
3708;SDS011;1870;53.996;10.784;2023-05-09T12:12:52;4.27;;;3.87;;
3708;SDS011;1870;53.996;10.784;2023-05-09T12:15:19;6.33;;;4.30;;
3708;SDS011;1870;53.996;10.784;2023-05-09T12:17:46;7.53;;;4.70;;
3708;SDS011;1870;53.996;10.784;2023-05-09T12:20:12;5.07;;;4.57;;
3708;SDS011;1870;53.996;10.784;2023-05-09T12:22:51;6.83;;;4.27;;
3708;SDS011;1870;53.996;10.784;2023-05-09T12:25:17;14.83;;;4.67;;
3708;SDS011;1870;53.996;10.784;2023-05-09T12:27:43;16.40;;;5.23;;
3708;SDS011;1870;53.996;10.784;2023-05-09T12:30:11;9.07;;;4.60;;
3708;SDS011;1870;53.996;10.784;2023-05-09T12:32:39;4.60;;;4.10;;
3708;SDS011;1870;53.996;10.784;2023-05-09T12:35:07;5.20;;;4.43;;
3708;SDS011;1870;53.996;10.784;2023-05-09T12:37:34;5.27;;;4.87;;
3708;SDS011;1870;53.996;10.784;2023-05-09T12:42:33;10.60;;;5.47;;
3708;SDS011;1870;53.996;10.784;2023-05-09T12:45:02;6.13;;;4.80;;
3708;SDS011;1870;53.996;10.784;2023-05-09T12:47:32;14.43;;;5.90;;
3708;SDS011;1870;53.996;10.784;2023-05-09T12:50:03;10.00;;;4.80;;
3708;SDS011;1870;53.996;10.784;2023-05-09T12:52:40;5.40;;;4.90;;
3708;SDS011;1870;53.996;10.784;2023-05-09T12:55:07;8.20;;;5.50;;
3708;SDS011;1870;53.996;10.784;2023-05-09T12:57:35;6.10;;;5.10;;
3708;SDS011;1870;53.996;10.784;2023-05-09T13:00:03;5.90;;;4.73;;
3708;SDS011;1870;53.996;10.784;2023-05-09T13:02:37;5.70;;;4.60;;
3708;SDS011;1870;53.996;10.784;2023-05-09T13:05:12;5.07;;;4.57;;
3708;SDS011;1870;53.996;10.784;2023-05-09T13:07:43;12.60;;;5.47;;
3708;SDS011;1870;53.996;10.784;2023-05-09T13:10:11;5.10;;;4.53;;
3708;SDS011;1870;53.996;10.784;2023-05-09T13:12:38;6.30;;;4.30;;
3708;SDS011;1870;53.996;10.784;2023-05-09T13:15:05;4.63;;;4.23;;
3708;SDS011;1870;53.996;10.784;2023-05-09T13:17:31;5.77;;;4.90;;
3708;SDS011;1870;53.996;10.784;2023-05-09T13:19:57;5.47;;;4.93;;
3708;SDS011;1870;53.996;10.784;2023-05-09T13:22:23;4.57;;;4.27;;
3708;SDS011;1870;53.996;10.784;2023-05-09T13:24:48;5.57;;;4.40;;
3708;SDS011;1870;53.996;10.784;2023-05-09T13:27:14;16.63;;;4.87;;
3708;SDS011;1870;53.996;10.784;2023-05-09T13:29:40;4.90;;;4.40;;
3708;SDS011;1870;53.996;10.784;2023-05-09T13:32:05;4.63;;;4.23;;
3708;SDS011;1870;53.996;10.784;2023-05-09T13:34:31;8.63;;;5.70;;
3708;SDS011;1870;53.996;10.784;2023-05-09T13:36:57;4.77;;;4.37;;
3708;SDS011;1870;53.996;10.784;2023-05-09T13:39:23;4.50;;;4.10;;
3708;SDS011;1870;53.996;10.784;2023-05-09T13:41:58;6.50;;;4.13;;
3708;SDS011;1870;53.996;10.784;2023-05-09T13:44:26;7.37;;;4.57;;
3708;SDS011;1870;53.996;10.784;2023-05-09T13:47:00;6.10;;;4.67;;
3708;SDS011;1870;53.996;10.784;2023-05-09T13:49:32;10.43;;;6.33;;
3708;SDS011;1870;53.996;10.784;2023-05-09T13:57:30;4.60;;;4.30;;
3708;SDS011;1870;53.996;10.784;2023-05-09T14:00:01;4.70;;;4.40;;
3708;SDS011;1870;53.996;10.784;2023-05-09T14:02:33;4.90;;;4.60;;
3708;SDS011;1870;53.996;10.784;2023-05-09T14:05:01;5.83;;;5.07;;
3708;SDS011;1870;53.996;10.784;2023-05-09T14:10:52;5.13;;;4.73;;
3708;SDS011;1870;53.996;10.784;2023-05-09T14:13:18;5.10;;;4.07;;
3708;SDS011;1870;53.996;10.784;2023-05-09T14:15:49;4.67;;;4.27;;
3708;SDS011;1870;53.996;10.784;2023-05-09T14:18:21;4.57;;;4.27;;
3708;SDS011;1870;53.996;10.784;2023-05-09T14:20:46;6.27;;;5.27;;
3708;SDS011;1870;53.996;10.784;2023-05-09T14:26:42;4.60;;;3.63;;
3708;SDS011;1870;53.996;10.784;2023-05-09T14:29:28;6.43;;;4.13;;
3708;SDS011;1870;53.996;10.784;2023-05-09T14:31:54;3.93;;;3.67;;
3708;SDS011;1870;53.996;10.784;2023-05-09T14:34:19;4.33;;;4.00;;
3708;SDS011;1870;53.996;10.784;2023-05-09T14:36:48;5.40;;;3.70;;
3708;SDS011;1870;53.996;10.784;2023-05-09T14:39:16;6.93;;;3.90;;
3708;SDS011;1870;53.996;10.784;2023-05-09T14:45:10;4.00;;;3.40;;
3708;SDS011;1870;53.996;10.784;2023-05-09T14:47:36;6.33;;;3.80;;
3708;SDS011;1870;53.996;10.784;2023-05-09T14:50:08;4.03;;;3.73;;
3708;SDS011;1870;53.996;10.784;2023-05-09T14:52:35;3.80;;;3.47;;
3708;SDS011;1870;53.996;10.784;2023-05-09T14:55:01;7.13;;;3.10;;
3708;SDS011;1870;53.996;10.784;2023-05-09T14:57:31;3.30;;;3.10;;
3708;SDS011;1870;53.996;10.784;2023-05-09T15:00:02;4.90;;;3.67;;
3708;SDS011;1870;53.996;10.784;2023-05-09T15:02:34;6.60;;;4.50;;
3708;SDS011;1870;53.996;10.784;2023-05-09T15:04:59;5.77;;;4.40;;
3708;SDS011;1870;53.996;10.784;2023-05-09T15:07:28;4.17;;;3.73;;
3708;SDS011;1870;53.996;10.784;2023-05-09T15:09:53;4.57;;;3.77;;
3708;SDS011;1870;53.996;10.784;2023-05-09T15:12:31;5.83;;;4.00;;
3708;SDS011;1870;53.996;10.784;2023-05-09T15:15:18;5.17;;;3.93;;
3708;SDS011;1870;53.996;10.784;2023-05-09T15:17:45;5.30;;;3.53;;
3708;SDS011;1870;53.996;10.784;2023-05-09T15:20:13;18.63;;;5.07;;
3708;SDS011;1870;53.996;10.784;2023-05-09T15:22:47;7.63;;;3.83;;
3708;SDS011;1870;53.996;10.784;2023-05-09T15:25:19;4.23;;;3.73;;
3708;SDS011;1870;53.996;10.784;2023-05-09T15:27:47;4.00;;;3.70;;
3708;SDS011;1870;53.996;10.784;2023-05-09T15:30:14;4.20;;;3.80;;
3708;SDS011;1870;53.996;10.784;2023-05-09T15:32:40;4.00;;;3.70;;
3708;SDS011;1870;53.996;10.784;2023-05-09T15:35:06;5.20;;;4.40;;
3708;SDS011;1870;53.996;10.784;2023-05-09T15:37:32;8.10;;;4.27;;
3708;SDS011;1870;53.996;10.784;2023-05-09T15:39:58;5.30;;;3.70;;
3708;SDS011;1870;53.996;10.784;2023-05-09T15:42:24;5.87;;;3.97;;
3708;SDS011;1870;53.996;10.784;2023-05-09T15:44:50;8.10;;;3.97;;